AKJ1320 VOMM-VOBL
Flight info
| Callsign | AKJ1320 |
|---|---|
| Flight time | 0h 44m |
| Altitude | 20000 |
| Route | MMV W117 BIA |
| Aircraft | B738/M-SDE2E3FGHIRWXY/LB1 |
Departure
| Time | 2026-04-24 08:12 |
|---|---|
| Airport | Chennai International Airport (VOMM) |
Arrival
| Time | 2026-04-24 08:56 |
|---|---|
| Airport | Kempegowda International Airport Bengaluru (VOBL) |
| Time | Latitude | Longitude | Altitude | Speed | Heading |
|---|---|---|---|---|---|
| 2026-04-24 07:23 | 12.98479 | 80.16288 | 54 ft | 0 kts | 341° |
| 2026-04-24 07:56 | 12.98465 | 80.16293 | 50 ft | 2 kts | 341° |
| 2026-04-24 07:57 | 12.98444 | 80.16300 | 47 ft | 2 kts | 345° |
| 2026-04-24 07:57 | 12.98427 | 80.16303 | 51 ft | 2 kts | 22° |
| 2026-04-24 07:57 | 12.98420 | 80.16297 | 50 ft | 1 kts | 68° |
| 2026-04-24 07:57 | 12.98419 | 80.16295 | 50 ft | 0 kts | 69° |
| 2026-04-24 08:04 | 12.98427 | 80.16314 | 51 ft | 10 kts | 69° |
| 2026-04-24 08:05 | 12.98468 | 80.16429 | 53 ft | 24 kts | 69° |
| 2026-04-24 08:05 | 12.98528 | 80.16594 | 54 ft | 24 kts | 70° |
| 2026-04-24 08:05 | 12.98587 | 80.16749 | 53 ft | 22 kts | 53° |
| 2026-04-24 08:05 | 12.98700 | 80.16737 | 54 ft | 17 kts | 335° |
| 2026-04-24 08:06 | 12.98780 | 80.16795 | 52 ft | 16 kts | 68° |
| 2026-04-24 08:06 | 12.98832 | 80.16936 | 53 ft | 24 kts | 68° |
| 2026-04-24 08:06 | 12.98891 | 80.17089 | 50 ft | 23 kts | 68° |
| 2026-04-24 08:06 | 12.98951 | 80.17235 | 54 ft | 22 kts | 60° |
| 2026-04-24 08:07 | 12.99011 | 80.17377 | 53 ft | 21 kts | 69° |
| 2026-04-24 08:07 | 12.99064 | 80.17517 | 51 ft | 21 kts | 69° |
| 2026-04-24 08:07 | 12.99115 | 80.17654 | 53 ft | 20 kts | 70° |
| 2026-04-24 08:07 | 12.99214 | 80.17743 | 53 ft | 20 kts | 72° |
| 2026-04-24 08:08 | 12.99263 | 80.17871 | 55 ft | 19 kts | 68° |
| 2026-04-24 08:08 | 12.99310 | 80.17996 | 51 ft | 18 kts | 69° |
| 2026-04-24 08:08 | 12.99347 | 80.18092 | 55 ft | 0 kts | 69° |
| 2026-04-24 08:09 | 12.99363 | 80.18156 | 58 ft | 16 kts | 90° |
| 2026-04-24 08:09 | 12.99409 | 80.18301 | 53 ft | 28 kts | 45° |
| 2026-04-24 08:09 | 12.99553 | 80.18414 | 55 ft | 16 kts | 4° |
| 2026-04-24 08:09 | 12.99578 | 80.18375 | 54 ft | 8 kts | 249° |
| 2026-04-24 08:10 | 12.99553 | 80.18325 | 52 ft | 8 kts | 242° |
| 2026-04-24 08:10 | 12.99547 | 80.18309 | 55 ft | 0 kts | 248° |
| 2026-04-24 08:11 | 12.99467 | 80.18100 | 56 ft | 79 kts | 249° |
| 2026-04-24 08:11 | 12.99155 | 80.17277 | 87 ft | 161 kts | 249° |
| 2026-04-24 08:12 | 12.98702 | 80.16055 | 664 ft | 199 kts | 249° |
| 2026-04-24 08:12 | 12.98199 | 80.14724 | 1894 ft | 192 kts | 252° |
| 2026-04-24 08:12 | 12.98109 | 80.13350 | 3008 ft | 209 kts | 282° |
| 2026-04-24 08:12 | 12.98582 | 80.11799 | 3310 ft | 247 kts | 289° |
| 2026-04-24 08:13 | 12.99186 | 80.10088 | 3984 ft | 260 kts | 290° |
| 2026-04-24 08:13 | 12.99787 | 80.08329 | 4117 ft | 261 kts | 288° |
| 2026-04-24 08:13 | 13.00335 | 80.06573 | 4168 ft | 259 kts | 287° |
| 2026-04-24 08:13 | 13.00868 | 80.04792 | 4185 ft | 264 kts | 287° |
| 2026-04-24 08:14 | 13.01392 | 80.03007 | 4200 ft | 265 kts | 286° |
| 2026-04-24 08:14 | 13.01914 | 80.01182 | 4204 ft | 264 kts | 286° |
| 2026-04-24 08:14 | 13.02427 | 79.99359 | 4457 ft | 269 kts | 285° |
| 2026-04-24 08:14 | 13.02935 | 79.97512 | 5438 ft | 268 kts | 285° |
| 2026-04-24 08:15 | 13.03437 | 79.95665 | 5967 ft | 269 kts | 285° |
| 2026-04-24 08:15 | 13.03940 | 79.93808 | 6187 ft | 271 kts | 285° |
| 2026-04-24 08:15 | 13.04441 | 79.91948 | 6186 ft | 271 kts | 285° |
| 2026-04-24 08:15 | 13.04943 | 79.90086 | 6196 ft | 272 kts | 285° |
| 2026-04-24 08:16 | 13.05444 | 79.88214 | 6200 ft | 272 kts | 285° |
| 2026-04-24 08:16 | 13.05947 | 79.86340 | 6204 ft | 273 kts | 285° |
| 2026-04-24 08:16 | 13.06452 | 79.84459 | 6208 ft | 274 kts | 285° |
| 2026-04-24 08:16 | 13.06956 | 79.82578 | 6197 ft | 274 kts | 285° |
| 2026-04-24 08:17 | 13.07454 | 79.80718 | 6203 ft | 274 kts | 285° |
| 2026-04-24 08:17 | 13.07946 | 79.78822 | 6325 ft | 277 kts | 284° |
| 2026-04-24 08:17 | 13.08387 | 79.77050 | 7054 ft | 278 kts | 284° |
| 2026-04-24 08:17 | 13.08858 | 79.75138 | 8065 ft | 277 kts | 284° |
| 2026-04-24 08:18 | 13.09304 | 79.73331 | 8882 ft | 280 kts | 284° |
| 2026-04-24 08:18 | 13.09780 | 79.71400 | 9707 ft | 284 kts | 284° |
| 2026-04-24 08:18 | 13.10270 | 79.69420 | 10448 ft | 293 kts | 284° |
| 2026-04-24 08:18 | 13.10790 | 79.67312 | 10783 ft | 314 kts | 284° |
| 2026-04-24 08:19 | 13.11333 | 79.65117 | 11465 ft | 321 kts | 284° |
| 2026-04-24 08:19 | 13.11885 | 79.62889 | 12284 ft | 324 kts | 284° |
| 2026-04-24 08:19 | 13.12441 | 79.60639 | 13077 ft | 327 kts | 284° |
| 2026-04-24 08:19 | 13.13005 | 79.58360 | 13836 ft | 331 kts | 284° |
| 2026-04-24 08:20 | 13.13575 | 79.56053 | 14582 ft | 335 kts | 284° |
| 2026-04-24 08:20 | 13.14150 | 79.53726 | 15312 ft | 339 kts | 284° |
| 2026-04-24 08:20 | 13.14733 | 79.51369 | 16023 ft | 343 kts | 284° |
| 2026-04-24 08:20 | 13.15322 | 79.48984 | 16716 ft | 346 kts | 284° |
| 2026-04-24 08:21 | 13.15916 | 79.46575 | 17417 ft | 349 kts | 284° |
| 2026-04-24 08:21 | 13.16510 | 79.44167 | 18229 ft | 347 kts | 284° |
| 2026-04-24 08:21 | 13.17101 | 79.41774 | 19082 ft | 344 kts | 284° |
| 2026-04-24 08:21 | 13.17688 | 79.39391 | 19674 ft | 346 kts | 284° |
| 2026-04-24 08:22 | 13.18276 | 79.37007 | 19985 ft | 346 kts | 284° |
| 2026-04-24 08:22 | 13.18870 | 79.34594 | 19987 ft | 349 kts | 284° |
| 2026-04-24 08:22 | 13.19464 | 79.32188 | 19995 ft | 346 kts | 284° |
| 2026-04-24 08:22 | 13.20054 | 79.29804 | 19997 ft | 344 kts | 284° |
| 2026-04-24 08:23 | 13.20640 | 79.27438 | 20000 ft | 342 kts | 284° |
| 2026-04-24 08:23 | 13.21225 | 79.25076 | 20003 ft | 341 kts | 284° |
| 2026-04-24 08:23 | 13.21809 | 79.22716 | 20005 ft | 341 kts | 284° |
| 2026-04-24 08:23 | 13.22385 | 79.20387 | 20008 ft | 341 kts | 284° |
| 2026-04-24 08:24 | 13.22968 | 79.18026 | 20010 ft | 342 kts | 284° |
| 2026-04-24 08:24 | 13.23555 | 79.15652 | 20011 ft | 343 kts | 284° |
| 2026-04-24 08:24 | 13.24143 | 79.13270 | 20009 ft | 345 kts | 284° |
| 2026-04-24 08:24 | 13.24732 | 79.10882 | 20006 ft | 346 kts | 284° |
| 2026-04-24 08:25 | 13.25312 | 79.08491 | 19995 ft | 346 kts | 284° |
| 2026-04-24 08:25 | 13.25901 | 79.06099 | 19999 ft | 346 kts | 284° |
| 2026-04-24 08:25 | 13.26496 | 79.03700 | 20000 ft | 347 kts | 284° |
| 2026-04-24 08:25 | 13.27091 | 79.01301 | 20002 ft | 347 kts | 284° |
| 2026-04-24 08:26 | 13.27685 | 78.98897 | 20002 ft | 348 kts | 284° |
| 2026-04-24 08:26 | 13.28277 | 78.96491 | 20003 ft | 348 kts | 284° |
| 2026-04-24 08:26 | 13.28870 | 78.94085 | 19997 ft | 347 kts | 284° |
| 2026-04-24 08:26 | 13.29400 | 78.91667 | 19989 ft | 347 kts | 276° |
| 2026-04-24 08:27 | 13.29375 | 78.89199 | 20017 ft | 346 kts | 266° |
| 2026-04-24 08:27 | 13.29184 | 78.86737 | 20006 ft | 347 kts | 265° |
| 2026-04-24 08:27 | 13.28972 | 78.84274 | 20005 ft | 347 kts | 265° |
| 2026-04-24 08:27 | 13.28764 | 78.81804 | 19998 ft | 347 kts | 265° |
| 2026-04-24 08:28 | 13.28565 | 78.79335 | 20000 ft | 347 kts | 265° |
| 2026-04-24 08:28 | 13.28377 | 78.76887 | 20004 ft | 347 kts | 265° |
| 2026-04-24 08:28 | 13.28192 | 78.74415 | 20000 ft | 347 kts | 265° |
| 2026-04-24 08:28 | 13.28011 | 78.71949 | 20002 ft | 347 kts | 265° |
| 2026-04-24 08:29 | 13.27831 | 78.69477 | 20002 ft | 347 kts | 265° |
| 2026-04-24 08:29 | 13.27652 | 78.67008 | 19999 ft | 347 kts | 265° |
| 2026-04-24 08:29 | 13.27472 | 78.64536 | 20001 ft | 347 kts | 265° |
| 2026-04-24 08:29 | 13.27293 | 78.62067 | 20002 ft | 347 kts | 266° |
| 2026-04-24 08:30 | 13.27114 | 78.59598 | 20000 ft | 347 kts | 265° |
| 2026-04-24 08:30 | 13.26934 | 78.57127 | 20000 ft | 347 kts | 265° |
| 2026-04-24 08:30 | 13.26755 | 78.54658 | 20002 ft | 347 kts | 265° |
| 2026-04-24 08:30 | 13.26575 | 78.52189 | 20001 ft | 347 kts | 265° |
| 2026-04-24 08:31 | 13.26394 | 78.49722 | 20001 ft | 347 kts | 265° |
| 2026-04-24 08:31 | 13.26215 | 78.47253 | 20003 ft | 347 kts | 266° |
| 2026-04-24 08:31 | 13.26300 | 78.44783 | 20003 ft | 347 kts | 278° |
| 2026-04-24 08:31 | 13.26687 | 78.42338 | 20003 ft | 347 kts | 280° |
| 2026-04-24 08:32 | 13.27115 | 78.39948 | 19986 ft | 341 kts | 280° |
| 2026-04-24 08:32 | 13.27539 | 78.37562 | 19984 ft | 331 kts | 280° |
| 2026-04-24 08:32 | 13.27936 | 78.35244 | 19987 ft | 328 kts | 279° |
| 2026-04-24 08:32 | 13.28314 | 78.32962 | 19947 ft | 330 kts | 279° |
| 2026-04-24 08:33 | 13.28698 | 78.30602 | 19695 ft | 330 kts | 279° |
| 2026-04-24 08:33 | 13.29070 | 78.28276 | 19375 ft | 330 kts | 279° |
| 2026-04-24 08:33 | 13.29435 | 78.25991 | 19079 ft | 328 kts | 279° |
| 2026-04-24 08:33 | 13.29802 | 78.23684 | 18754 ft | 327 kts | 279° |
| 2026-04-24 08:34 | 13.30166 | 78.21389 | 18429 ft | 325 kts | 279° |
| 2026-04-24 08:34 | 13.30482 | 78.19092 | 18106 ft | 324 kts | 274° |
| 2026-04-24 08:34 | 13.30578 | 78.16789 | 17796 ft | 322 kts | 271° |
| 2026-04-24 08:34 | 13.30586 | 78.14491 | 17474 ft | 321 kts | 270° |
| 2026-04-24 08:35 | 13.30578 | 78.12199 | 17162 ft | 320 kts | 270° |
| 2026-04-24 08:35 | 13.30580 | 78.09918 | 16827 ft | 319 kts | 270° |
| 2026-04-24 08:35 | 13.30593 | 78.07642 | 16500 ft | 318 kts | 270° |
| 2026-04-24 08:35 | 13.30613 | 78.05372 | 16174 ft | 318 kts | 270° |
| 2026-04-24 08:36 | 13.30638 | 78.03110 | 15857 ft | 317 kts | 270° |
| 2026-04-24 08:36 | 13.30667 | 78.00856 | 15532 ft | 316 kts | 271° |
| 2026-04-24 08:36 | 13.30696 | 77.98607 | 15221 ft | 315 kts | 271° |
| 2026-04-24 08:36 | 13.30727 | 77.96361 | 14900 ft | 314 kts | 271° |
| 2026-04-24 08:37 | 13.30757 | 77.94123 | 14577 ft | 313 kts | 271° |
| 2026-04-24 08:37 | 13.30788 | 77.91888 | 14262 ft | 313 kts | 271° |
| 2026-04-24 08:37 | 13.30818 | 77.89656 | 13959 ft | 311 kts | 271° |
| 2026-04-24 08:37 | 13.30848 | 77.87460 | 13839 ft | 304 kts | 271° |
| 2026-04-24 08:38 | 13.30877 | 77.85315 | 13706 ft | 298 kts | 271° |
| 2026-04-24 08:38 | 13.30906 | 77.83214 | 13584 ft | 291 kts | 271° |
| 2026-04-24 08:38 | 13.30933 | 77.81174 | 13457 ft | 284 kts | 271° |
| 2026-04-24 08:38 | 13.30959 | 77.79153 | 13347 ft | 278 kts | 271° |
| 2026-04-24 08:39 | 13.30983 | 77.77186 | 13136 ft | 275 kts | 270° |
| 2026-04-24 08:39 | 13.31000 | 77.75227 | 12893 ft | 274 kts | 270° |
| 2026-04-24 08:39 | 13.31015 | 77.73266 | 12610 ft | 275 kts | 270° |
| 2026-04-24 08:39 | 13.31031 | 77.71329 | 12332 ft | 275 kts | 270° |
| 2026-04-24 08:40 | 13.31047 | 77.69367 | 12076 ft | 274 kts | 270° |
| 2026-04-24 08:40 | 13.31063 | 77.67437 | 12014 ft | 266 kts | 270° |
| 2026-04-24 08:40 | 13.31077 | 77.65573 | 11989 ft | 256 kts | 270° |
| 2026-04-24 08:40 | 13.31091 | 77.63778 | 11989 ft | 249 kts | 270° |
| 2026-04-24 08:41 | 13.31105 | 77.62005 | 11996 ft | 247 kts | 270° |
| 2026-04-24 08:41 | 13.31118 | 77.60246 | 11999 ft | 246 kts | 270° |
| 2026-04-24 08:41 | 13.31131 | 77.58491 | 12004 ft | 245 kts | 270° |
| 2026-04-24 08:41 | 13.31145 | 77.56740 | 12009 ft | 245 kts | 270° |
| 2026-04-24 08:42 | 13.31158 | 77.54990 | 12005 ft | 245 kts | 270° |
| 2026-04-24 08:42 | 13.31171 | 77.53239 | 11953 ft | 245 kts | 270° |
| 2026-04-24 08:42 | 13.31184 | 77.51491 | 11671 ft | 245 kts | 270° |
| 2026-04-24 08:42 | 13.31196 | 77.49743 | 11324 ft | 245 kts | 270° |
| 2026-04-24 08:43 | 13.31159 | 77.48000 | 10991 ft | 244 kts | 259° |
| 2026-04-24 08:43 | 13.30562 | 77.46383 | 10660 ft | 242 kts | 250° |
| 2026-04-24 08:43 | 13.30451 | 77.44692 | 10289 ft | 241 kts | 288° |
| 2026-04-24 08:43 | 13.31396 | 77.43314 | 9962 ft | 239 kts | 328° |
| 2026-04-24 08:44 | 13.32901 | 77.42806 | 9931 ft | 222 kts | 349° |
| 2026-04-24 08:44 | 13.34458 | 77.42635 | 9403 ft | 233 kts | 4° |
| 2026-04-24 08:44 | 13.36045 | 77.43012 | 8960 ft | 238 kts | 25° |
| 2026-04-24 08:44 | 13.37244 | 77.44149 | 8602 ft | 238 kts | 65° |
| 2026-04-24 08:45 | 13.37535 | 77.45789 | 8397 ft | 234 kts | 90° |
| 2026-04-24 08:45 | 13.37535 | 77.47473 | 8157 ft | 237 kts | 90° |
| 2026-04-24 08:45 | 13.37531 | 77.49178 | 7903 ft | 239 kts | 90° |
| 2026-04-24 08:45 | 13.37529 | 77.50878 | 7653 ft | 237 kts | 90° |
| 2026-04-24 08:46 | 13.37528 | 77.51998 | 7488 ft | 237 kts | 90° |
| 2026-04-24 08:46 | 13.37396 | 77.53665 | 7233 ft | 233 kts | 109° |
| 2026-04-24 08:46 | 13.36543 | 77.55021 | 7137 ft | 225 kts | 140° |
| 2026-04-24 08:46 | 13.34690 | 77.55866 | 7051 ft | 226 kts | 177° |
| 2026-04-24 08:47 | 13.33135 | 77.55617 | 7017 ft | 230 kts | 205° |
| 2026-04-24 08:47 | 13.31884 | 77.54611 | 7006 ft | 231 kts | 235° |
| 2026-04-24 08:47 | 13.31389 | 77.53631 | 6986 ft | 230 kts | 254° |
| 2026-04-24 08:47 | 13.31170 | 77.52021 | 7011 ft | 229 kts | 269° |
| 2026-04-24 08:48 | 13.31170 | 77.50378 | 6996 ft | 230 kts | 271° |
| 2026-04-24 08:48 | 13.31189 | 77.48738 | 7002 ft | 230 kts | 270° |
| 2026-04-24 08:48 | 13.31201 | 77.47092 | 6999 ft | 231 kts | 270° |
| 2026-04-24 08:48 | 13.31171 | 77.45458 | 6992 ft | 225 kts | 258° |
| 2026-04-24 08:49 | 13.30430 | 77.44138 | 6991 ft | 211 kts | 216° |
| 2026-04-24 08:49 | 13.29140 | 77.43748 | 6983 ft | 192 kts | 172° |
| 2026-04-24 08:49 | 13.27820 | 77.44041 | 6999 ft | 192 kts | 171° |
| 2026-04-24 08:49 | 13.26504 | 77.44190 | 7016 ft | 190 kts | 178° |
| 2026-04-24 08:50 | 13.25185 | 77.44157 | 6993 ft | 189 kts | 185° |
| 2026-04-24 08:50 | 13.23904 | 77.44008 | 7012 ft | 186 kts | 188° |
| 2026-04-24 08:50 | 13.22651 | 77.44140 | 6972 ft | 181 kts | 150° |
| 2026-04-24 08:50 | 13.21647 | 77.44927 | 6977 ft | 184 kts | 129° |
| 2026-04-24 08:51 | 13.21256 | 77.46131 | 7005 ft | 181 kts | 95° |
| 2026-04-24 08:51 | 13.21067 | 77.47409 | 7001 ft | 182 kts | 99° |
| 2026-04-24 08:51 | 13.20937 | 77.48709 | 6752 ft | 180 kts | 93° |
| 2026-04-24 08:51 | 13.20896 | 77.49954 | 6522 ft | 169 kts | 91° |
| 2026-04-24 08:52 | 13.20875 | 77.51145 | 6306 ft | 166 kts | 90° |
| 2026-04-24 08:52 | 13.20863 | 77.52312 | 6079 ft | 162 kts | 90° |
| 2026-04-24 08:52 | 13.20856 | 77.53447 | 5898 ft | 159 kts | 91° |
| 2026-04-24 08:52 | 13.20841 | 77.54596 | 5679 ft | 163 kts | 92° |
| 2026-04-24 08:53 | 13.20832 | 77.55756 | 5452 ft | 162 kts | 90° |
| 2026-04-24 08:53 | 13.20818 | 77.56906 | 5226 ft | 160 kts | 91° |
| 2026-04-24 08:53 | 13.20810 | 77.58042 | 5033 ft | 160 kts | 90° |
| 2026-04-24 08:53 | 13.20800 | 77.59186 | 4824 ft | 160 kts | 90° |
| 2026-04-24 08:54 | 13.20790 | 77.60316 | 4610 ft | 157 kts | 90° |
| 2026-04-24 08:54 | 13.20772 | 77.61445 | 4406 ft | 159 kts | 91° |
| 2026-04-24 08:54 | 13.20768 | 77.62581 | 4190 ft | 159 kts | 90° |
| 2026-04-24 08:54 | 13.20767 | 77.63710 | 3967 ft | 157 kts | 88° |
| 2026-04-24 08:55 | 13.20756 | 77.64825 | 3781 ft | 156 kts | 92° |
| 2026-04-24 08:55 | 13.20739 | 77.65861 | 3582 ft | 157 kts | 90° |
| 2026-04-24 08:55 | 13.20733 | 77.66977 | 3372 ft | 156 kts | 91° |
| 2026-04-24 08:55 | 13.20728 | 77.68069 | 3169 ft | 154 kts | 91° |
| 2026-04-24 08:56 | 13.20718 | 77.69166 | 3002 ft | 149 kts | 92° |
| 2026-04-24 08:56 | 13.20704 | 77.70065 | 2977 ft | 103 kts | 90° |
| 2026-04-24 08:56 | 13.20675 | 77.70492 | 2967 ft | 36 kts | 122° |
| 2026-04-24 08:56 | 13.20555 | 77.70635 | 2953 ft | 12 kts | 182° |
| 2026-04-24 08:57 | 13.20531 | 77.70604 | 2964 ft | 8 kts | 262° |
| 2026-04-24 08:57 | 13.20529 | 77.70561 | 2952 ft | 0 kts | 269° |
| 2026-04-24 08:59 | 13.20529 | 77.70553 | 2953 ft | 7 kts | 269° |
| 2026-04-24 08:59 | 13.20530 | 77.70444 | 2968 ft | 21 kts | 271° |
| 2026-04-24 09:00 | 13.20532 | 77.70300 | 2971 ft | 20 kts | 270° |
| 2026-04-24 09:00 | 13.20533 | 77.70160 | 2975 ft | 19 kts | 270° |
| 2026-04-24 09:00 | 13.20534 | 77.70025 | 2978 ft | 19 kts | 270° |
| 2026-04-24 09:00 | 13.20535 | 77.69894 | 2980 ft | 18 kts | 270° |
| 2026-04-24 09:01 | 13.20535 | 77.69762 | 2983 ft | 21 kts | 270° |
| 2026-04-24 09:01 | 13.20537 | 77.69601 | 2987 ft | 24 kts | 271° |
| 2026-04-24 09:01 | 13.20539 | 77.69432 | 2990 ft | 23 kts | 269° |
| 2026-04-24 09:01 | 13.20464 | 77.69335 | 2992 ft | 21 kts | 180° |
| 2026-04-24 09:02 | 13.20331 | 77.69334 | 2992 ft | 11 kts | 179° |
| 2026-04-24 09:02 | 13.20276 | 77.69372 | 2991 ft | 10 kts | 106° |
| 2026-04-24 09:02 | 13.20274 | 77.69446 | 2990 ft | 11 kts | 93° |
| 2026-04-24 09:02 | 13.20216 | 77.69482 | 2989 ft | 11 kts | 181° |
| 2026-04-24 09:03 | 13.20180 | 77.69481 | 2989 ft | 0 kts | 180° |